createdAt,value
2023-04-11T00:02:06.428Z,1.65
2023-04-11T00:04:39.313Z,1.48
2023-04-11T00:07:08.737Z,1.52
2023-04-11T00:09:37.384Z,1.80
2023-04-11T00:12:06.251Z,1.67
2023-04-11T00:14:34.763Z,1.50
2023-04-11T00:17:03.450Z,1.60
2023-04-11T00:19:33.524Z,1.55
2023-04-11T00:22:02.928Z,1.70
2023-04-11T00:24:31.310Z,1.50
2023-04-11T00:26:59.688Z,1.42
2023-04-11T00:29:28.101Z,1.63
2023-04-11T00:31:56.881Z,1.42
2023-04-11T00:34:25.276Z,1.55
2023-04-11T00:36:55.190Z,1.38
2023-04-11T00:39:26.584Z,1.40
2023-04-11T00:41:55.028Z,1.20
2023-04-11T00:44:25.635Z,1.30
2023-04-11T00:46:54.153Z,1.38
2023-04-11T00:49:22.499Z,1.65
2023-04-11T00:51:50.846Z,1.05
2023-04-11T00:54:20.701Z,1.40
2023-04-11T00:56:49.385Z,1.55
2023-04-11T00:59:17.717Z,1.40
2023-04-11T01:01:46.245Z,1.33
2023-04-11T01:04:14.787Z,1.13
2023-04-11T01:06:43.365Z,1.40
2023-04-11T01:09:11.891Z,1.20
2023-04-11T01:11:41.823Z,1.13
2023-04-11T01:14:10.261Z,1.20
2023-04-11T01:16:38.757Z,1.00
2023-04-11T01:19:08.284Z,1.33
2023-04-11T01:21:37.961Z,1.23
2023-04-11T01:24:08.900Z,1.02
2023-04-11T01:26:37.243Z,1.10
2023-04-11T01:29:05.732Z,1.20
2023-04-11T01:31:34.155Z,1.10
2023-04-11T01:34:03.080Z,1.10
2023-04-11T01:36:32.396Z,1.30
2023-04-11T01:39:01.549Z,0.93
2023-04-11T01:41:32.360Z,1.10
2023-04-11T01:44:00.891Z,0.90
2023-04-11T01:46:29.511Z,1.20
2023-04-11T01:49:00.084Z,1.00
2023-04-11T01:51:28.655Z,1.13
2023-04-11T01:53:57.096Z,1.10
2023-04-11T01:56:25.484Z,1.08
2023-04-11T01:58:55.363Z,1.10
2023-04-11T02:01:23.862Z,1.20
2023-04-11T02:03:52.773Z,1.40
2023-04-11T02:06:21.348Z,1.20
2023-04-11T02:08:49.757Z,1.00
2023-04-11T02:11:18.182Z,1.10
2023-04-11T02:13:46.724Z,0.98
2023-04-11T02:16:18.255Z,1.20
2023-04-11T02:18:47.318Z,1.30
2023-04-11T02:21:15.599Z,1.10
2023-04-11T02:23:43.986Z,1.02
2023-04-11T02:26:12.433Z,0.85
2023-04-11T02:28:40.838Z,0.98
2023-04-11T02:31:09.506Z,1.10
2023-04-11T02:33:39.291Z,1.30
2023-04-11T02:36:08.441Z,1.25
2023-04-11T02:38:37.629Z,1.05
2023-04-11T02:41:07.030Z,0.80
2023-04-11T02:43:35.698Z,1.02
2023-04-11T02:46:12.841Z,1.00
2023-04-11T02:48:43.023Z,1.20
2023-04-11T02:51:11.337Z,0.93
2023-04-11T02:53:39.689Z,1.13
2023-04-11T02:56:10.895Z,0.90
2023-04-11T02:58:42.190Z,0.93
2023-04-11T03:01:11.941Z,1.00
2023-04-11T03:03:40.441Z,1.00
2023-04-11T03:06:10.744Z,0.95
2023-04-11T03:08:39.383Z,1.00
2023-04-11T03:11:07.908Z,0.90
2023-04-11T03:13:37.481Z,0.93
2023-04-11T03:16:06.624Z,0.90
2023-04-11T03:18:35.047Z,0.93
2023-04-11T03:21:03.411Z,0.80
2023-04-11T03:23:33.273Z,0.90
2023-04-11T03:26:01.607Z,0.90
2023-04-11T03:28:30.135Z,0.90
2023-04-11T03:30:58.546Z,0.95
2023-04-11T03:33:26.925Z,0.85
2023-04-11T03:35:55.376Z,1.10
2023-04-11T03:38:23.804Z,0.85
2023-04-11T03:40:53.962Z,0.90
2023-04-11T03:43:22.372Z,1.00
2023-04-11T03:45:51.825Z,0.90
2023-04-11T03:48:20.567Z,0.98
2023-04-11T03:50:49.069Z,0.77
2023-04-11T03:53:17.345Z,0.93
2023-04-11T03:55:46.903Z,0.80
2023-04-11T03:58:16.865Z,1.08
2023-04-11T04:00:45.235Z,0.93
2023-04-11T04:03:14.034Z,0.98
2023-04-11T04:05:42.907Z,1.20
2023-04-11T04:08:11.275Z,1.10
2023-04-11T04:10:39.548Z,1.08
2023-04-11T04:13:07.971Z,1.00
2023-04-11T04:15:37.949Z,1.10
2023-04-11T04:18:06.390Z,1.10
2023-04-11T04:20:34.596Z,0.90
2023-04-11T04:23:04.659Z,0.80
2023-04-11T04:25:32.977Z,1.00
2023-04-11T04:28:01.217Z,0.95
2023-04-11T04:30:29.770Z,0.98
2023-04-11T04:33:00.436Z,1.00
2023-04-11T04:35:28.738Z,1.00
2023-04-11T04:37:57.144Z,1.30
2023-04-11T04:40:26.123Z,1.33
2023-04-11T04:42:58.857Z,1.08
2023-04-11T04:45:27.391Z,1.30
2023-04-11T04:47:55.781Z,1.10
2023-04-11T04:50:25.752Z,1.20
2023-04-11T04:52:54.094Z,1.15
2023-04-11T04:55:22.463Z,1.45
2023-04-11T04:57:50.811Z,1.00
2023-04-11T05:00:21.792Z,1.48
2023-04-11T05:02:55.014Z,1.45
2023-04-11T05:05:23.654Z,1.20
2023-04-11T05:07:53.630Z,1.20
2023-04-11T05:10:22.409Z,1.38
2023-04-11T05:12:50.924Z,2.13
2023-04-11T05:15:19.322Z,2.67
2023-04-11T05:17:47.690Z,1.55
2023-04-11T05:20:16.187Z,1.50
2023-04-11T05:22:44.702Z,1.35
2023-04-11T05:25:14.559Z,1.30
2023-04-11T05:27:42.836Z,1.33
2023-04-11T05:30:12.359Z,1.20
2023-04-11T05:32:40.845Z,1.60
2023-04-11T05:35:10.758Z,1.80
2023-04-11T05:37:39.366Z,1.90
2023-04-11T05:40:09.996Z,1.70
2023-04-11T05:42:39.954Z,1.80
2023-04-11T05:45:09.570Z,1.90
2023-04-11T05:47:38.049Z,1.67
2023-04-11T05:50:07.673Z,1.50
2023-04-11T05:52:36.302Z,1.95
2023-04-11T05:55:05.027Z,1.70
2023-04-11T05:57:33.754Z,1.70
2023-04-11T06:00:07.098Z,1.70
2023-04-11T06:02:35.815Z,1.80
2023-04-11T06:05:04.269Z,1.70
2023-04-11T06:07:33.740Z,1.70
2023-04-11T06:10:01.989Z,1.30
2023-04-11T06:12:30.344Z,1.27
2023-04-11T06:14:59.679Z,1.50
2023-04-11T06:17:29.592Z,1.40
2023-04-11T06:19:57.820Z,1.20
2023-04-11T06:22:26.035Z,1.15
2023-04-11T06:24:54.293Z,1.98
2023-04-11T06:27:22.505Z,1.60
2023-04-11T06:29:50.987Z,1.63
2023-04-11T06:32:19.905Z,2.83
2023-04-11T06:34:49.530Z,1.17
2023-04-11T06:37:17.735Z,1.05
2023-04-11T06:39:46.066Z,1.13
2023-04-11T06:42:14.236Z,1.10
2023-04-11T06:44:42.538Z,1.10
2023-04-11T06:47:10.823Z,1.10
2023-04-11T06:49:38.999Z,1.65
2023-04-11T06:52:08.637Z,1.40
2023-04-11T06:54:36.899Z,1.25
2023-04-11T06:57:05.222Z,1.00
2023-04-11T06:59:34.902Z,1.20
2023-04-11T07:02:03.130Z,1.40
2023-04-11T07:04:31.553Z,1.70
2023-04-11T07:06:59.770Z,1.23
2023-04-11T07:09:29.348Z,1.17
2023-04-11T07:11:57.751Z,1.40
2023-04-11T07:14:25.895Z,1.60
2023-04-11T07:16:54.029Z,1.20
2023-04-11T07:19:22.262Z,1.30
2023-04-11T07:21:50.423Z,1.15
2023-04-11T07:24:21.054Z,1.20
2023-04-11T07:26:52.013Z,0.73
2023-04-11T07:29:20.453Z,0.80
2023-04-11T07:31:49.673Z,0.80
2023-04-11T07:34:17.920Z,0.65
2023-04-11T07:36:46.068Z,0.70
2023-04-11T07:39:14.971Z,0.70
2023-04-11T07:41:43.161Z,0.50
2023-04-11T07:44:12.807Z,0.57
2023-04-11T07:46:41.042Z,0.80
2023-04-11T07:49:09.186Z,0.57
2023-04-11T07:51:37.326Z,0.55
2023-04-11T07:54:05.566Z,0.70
2023-04-11T07:56:33.760Z,0.70
2023-04-11T07:59:01.952Z,0.85
2023-04-11T08:01:34.249Z,0.40
2023-04-11T08:04:02.914Z,0.70
2023-04-11T08:06:31.631Z,0.98
2023-04-11T08:09:01.046Z,0.90
2023-04-11T08:11:29.247Z,0.43
2023-04-11T08:13:57.649Z,0.50
2023-04-11T08:16:26.064Z,0.20
2023-04-11T08:18:57.395Z,0.35
2023-04-11T08:21:25.635Z,0.40
2023-04-11T08:23:53.857Z,0.40
2023-04-11T08:26:22.116Z,0.50
2023-04-11T08:28:50.287Z,0.30
2023-04-11T08:31:18.579Z,0.50
2023-04-11T08:33:46.913Z,0.32
2023-04-11T08:36:16.598Z,0.50
2023-04-11T08:38:44.871Z,0.40
2023-04-11T08:41:13.116Z,0.30
2023-04-11T08:43:41.360Z,0.20
2023-04-11T08:46:09.920Z,0.50
2023-04-11T08:48:38.166Z,0.30
2023-04-11T08:51:06.973Z,0.30
2023-04-11T08:53:39.200Z,0.30
2023-04-11T08:56:07.899Z,0.25
2023-04-11T08:58:36.048Z,0.50
2023-04-11T09:01:29.839Z,0.25
2023-04-11T09:03:58.615Z,0.35
2023-04-11T09:06:30.765Z,0.40
2023-04-11T09:09:01.526Z,0.40
2023-04-11T09:11:29.794Z,0.50
2023-04-11T09:14:08.754Z,0.50
2023-04-11T09:16:37.566Z,0.68
2023-04-11T09:19:23.941Z,0.80
2023-04-11T09:21:52.371Z,0.40
2023-04-11T09:24:22.800Z,0.38
2023-04-11T09:26:52.100Z,0.30
2023-04-11T09:29:38.204Z,0.40
2023-04-11T09:32:06.794Z,0.20
2023-04-11T09:34:37.771Z,0.30
2023-04-11T09:37:06.495Z,2.20
2023-04-11T09:39:36.300Z,1.20
2023-04-11T09:42:25.343Z,0.25
2023-04-11T09:44:54.448Z,0.40
2023-04-11T09:47:23.087Z,0.20
2023-04-11T09:49:52.847Z,0.40
2023-04-11T09:52:21.832Z,0.40
2023-04-11T09:54:53.027Z,0.40
2023-04-11T09:57:23.875Z,0.40
2023-04-11T09:59:53.801Z,0.60
2023-04-11T10:02:22.074Z,0.75
2023-04-11T10:04:51.682Z,0.70
2023-04-11T10:07:22.091Z,0.70
2023-04-11T10:09:51.873Z,0.60
2023-04-11T10:12:32.145Z,0.40
2023-04-11T10:15:08.385Z,0.57
2023-04-11T10:17:37.628Z,0.60
2023-04-11T10:20:46.767Z,0.60
2023-04-11T10:23:16.113Z,0.70
2023-04-11T10:25:53.841Z,0.47
2023-04-11T10:28:33.022Z,0.50
2023-04-11T10:31:04.077Z,0.50
2023-04-11T10:33:33.482Z,0.70
2023-04-11T10:36:03.745Z,0.75
2023-04-11T10:38:51.597Z,0.60
2023-04-11T10:41:32.012Z,0.43
2023-04-11T10:44:15.688Z,0.40
2023-04-11T10:46:52.199Z,0.50
2023-04-11T10:49:34.183Z,0.80
2023-04-11T10:52:18.507Z,0.30
2023-04-11T10:54:47.272Z,0.40
2023-04-11T10:57:16.916Z,0.50
2023-04-11T11:00:16.660Z,0.60
2023-04-11T11:02:44.942Z,0.50
2023-04-11T11:05:21.259Z,0.40
2023-04-11T11:07:54.301Z,0.40
2023-04-11T11:10:41.338Z,0.50
2023-04-11T11:13:11.322Z,0.47
2023-04-11T11:15:39.931Z,0.60
2023-04-11T11:18:10.212Z,0.40
2023-04-11T11:20:39.005Z,0.38
2023-04-11T11:23:08.927Z,0.40
2023-04-11T11:25:37.592Z,0.40
2023-04-11T11:28:07.998Z,0.40
2023-04-11T11:30:38.490Z,0.40
2023-04-11T11:33:17.908Z,0.50
2023-04-11T11:35:52.272Z,0.57
2023-04-11T11:38:21.113Z,0.60
2023-04-11T11:40:49.850Z,0.43
2023-04-11T11:43:18.253Z,0.60
2023-04-11T11:45:48.152Z,0.50
2023-04-11T11:48:23.479Z,0.60
2023-04-11T11:50:57.717Z,0.47
2023-04-11T11:53:26.997Z,0.40
2023-04-11T11:55:56.881Z,0.60
2023-04-11T11:58:25.136Z,0.70
2023-04-11T12:00:55.270Z,0.70
2023-04-11T12:03:24.999Z,0.82
2023-04-11T12:05:58.262Z,0.93
2023-04-11T12:08:27.337Z,0.85
2023-04-11T12:10:55.496Z,0.45
2023-04-11T12:13:27.151Z,0.60
2023-04-11T12:18:26.511Z,0.28
2023-04-11T12:20:55.222Z,0.30
2023-04-11T12:23:24.108Z,0.40
2023-04-11T12:25:52.351Z,0.30
2023-04-11T12:28:20.689Z,0.60
2023-04-11T12:30:48.838Z,0.40
2023-04-11T12:33:18.415Z,0.50
2023-04-11T12:35:46.806Z,0.40
2023-04-11T12:38:17.558Z,0.40
2023-04-11T12:40:47.088Z,0.40
2023-04-11T12:43:15.550Z,0.40
2023-04-11T12:45:43.875Z,0.40
2023-04-11T12:48:12.051Z,0.68
2023-04-11T12:50:41.739Z,0.45
2023-04-11T12:53:09.970Z,0.40
2023-04-11T12:55:38.249Z,0.30
2023-04-11T12:58:08.098Z,0.52
2023-04-11T13:00:36.449Z,0.45
2023-04-11T13:03:05.289Z,0.30
2023-04-11T13:05:33.667Z,0.80
2023-04-11T13:08:03.226Z,0.50
2023-04-11T13:10:31.506Z,0.40
2023-04-11T13:13:05.340Z,0.50
2023-04-11T13:15:40.798Z,0.43
2023-04-11T13:18:09.157Z,0.55
2023-04-11T13:20:37.462Z,0.40
2023-04-11T13:23:07.043Z,0.65
2023-04-11T13:25:35.301Z,0.68
2023-04-11T13:28:03.517Z,0.40
2023-04-11T13:30:31.810Z,0.50
2023-04-11T13:33:00.104Z,0.80
2023-04-11T13:35:28.307Z,1.05
2023-04-11T13:37:56.472Z,0.55
2023-04-11T13:40:26.088Z,0.40
2023-04-11T13:42:54.648Z,0.40
2023-04-11T13:45:23.162Z,0.60
2023-04-11T13:47:51.394Z,0.60
2023-04-11T13:50:19.822Z,0.52
2023-04-11T13:52:48.025Z,0.55
2023-04-11T13:55:16.247Z,0.70
2023-04-11T13:57:45.846Z,0.75
2023-04-11T14:00:15.268Z,0.90
2023-04-11T14:02:44.503Z,0.68
2023-04-11T14:05:13.186Z,0.80
2023-04-11T14:07:41.813Z,0.30
2023-04-11T14:10:10.846Z,0.50
2023-04-11T14:12:39.209Z,1.15
2023-04-11T14:15:10.303Z,0.80
2023-04-11T14:17:38.604Z,0.60
2023-04-11T14:20:08.878Z,0.80
2023-04-11T14:22:37.235Z,0.52
2023-04-11T14:25:06.587Z,0.32
2023-04-11T14:27:34.816Z,0.60
2023-04-11T14:30:03.011Z,0.50
2023-04-11T14:32:32.608Z,0.30
2023-04-11T14:35:02.295Z,0.70
2023-04-11T14:37:31.927Z,0.60
2023-04-11T14:40:00.222Z,0.40
2023-04-11T14:42:28.522Z,0.40
2023-04-11T14:44:56.909Z,0.68
2023-04-11T14:47:25.116Z,0.60
2023-04-11T14:49:54.704Z,0.60
2023-04-11T14:52:22.928Z,0.20
2023-04-11T14:54:51.248Z,0.30
2023-04-11T14:57:19.555Z,0.30
2023-04-11T14:59:48.533Z,0.30
2023-04-11T15:02:16.908Z,0.38
2023-04-11T15:04:45.267Z,0.60
2023-04-11T15:07:14.890Z,0.35
2023-04-11T15:09:43.596Z,0.40
2023-04-11T15:12:11.771Z,0.40
2023-04-11T15:14:39.916Z,0.30
2023-04-11T15:17:08.092Z,0.30
2023-04-11T15:19:36.380Z,0.30
2023-04-11T15:22:04.664Z,0.40
2023-04-11T15:24:34.194Z,0.40
2023-04-11T15:27:02.433Z,0.50
2023-04-11T15:29:30.739Z,1.95
2023-04-11T15:32:03.295Z,0.40
2023-04-11T15:34:31.502Z,0.30
2023-04-11T15:36:59.709Z,0.52
2023-04-11T15:39:28.039Z,0.60
2023-04-11T15:41:57.639Z,0.60
2023-04-11T15:44:25.907Z,0.70
2023-04-11T15:46:54.182Z,0.50
2023-04-11T15:49:22.466Z,0.60
2023-04-11T15:51:50.667Z,0.52
2023-04-11T15:54:18.957Z,0.70
2023-04-11T15:56:47.199Z,0.60
2023-04-11T15:59:16.881Z,0.60
2023-04-11T16:01:45.087Z,0.60
2023-04-11T16:04:13.413Z,0.70
2023-04-11T16:06:41.604Z,0.80
2023-04-11T16:09:09.761Z,0.80
2023-04-11T16:11:39.912Z,0.50
2023-04-11T16:14:08.115Z,0.63
2023-04-11T16:16:38.060Z,0.70
2023-04-11T16:19:07.370Z,0.73
2023-04-11T16:21:35.537Z,0.60
2023-04-11T16:24:03.737Z,0.85
2023-04-11T16:26:32.329Z,0.85
2023-04-11T16:29:00.503Z,0.80
2023-04-11T16:31:28.755Z,1.20
2023-04-11T16:33:59.051Z,0.80
2023-04-11T16:36:28.572Z,0.77
2023-04-11T16:38:56.832Z,0.70
2023-04-11T16:41:25.215Z,0.68
2023-04-11T16:43:53.538Z,0.77
2023-04-11T16:46:21.798Z,0.70
2023-04-11T16:48:50.295Z,0.80
2023-04-11T16:51:21.411Z,1.10
2023-04-11T16:53:50.434Z,0.85
2023-04-11T16:56:19.074Z,0.60
2023-04-11T16:58:47.823Z,0.60
2023-04-11T17:01:16.357Z,0.90
2023-04-11T17:03:45.662Z,0.88
2023-04-11T17:06:14.857Z,1.00
2023-04-11T17:08:45.520Z,1.27
2023-04-11T17:11:13.743Z,0.90
2023-04-11T17:13:45.213Z,1.08
2023-04-11T17:16:13.712Z,0.98
2023-04-11T17:18:42.120Z,1.23
2023-04-11T17:21:10.687Z,1.10
2023-04-11T17:23:42.596Z,1.27
2023-04-11T17:26:13.298Z,0.95
2023-04-11T17:28:42.384Z,1.00
2023-04-11T17:31:14.148Z,1.02
2023-04-11T17:33:42.499Z,1.10
2023-04-11T17:36:12.401Z,0.80
2023-04-11T17:38:42.189Z,1.02
2023-04-11T17:41:14.926Z,1.35
2023-04-11T17:43:44.320Z,1.02
2023-04-11T17:46:12.968Z,0.65
2023-04-11T17:48:42.102Z,0.70
2023-04-11T17:51:10.393Z,0.70
2023-04-11T17:53:38.567Z,1.08
2023-04-11T17:56:07.815Z,0.95
2023-04-11T17:58:40.161Z,0.70
2023-04-11T18:01:12.160Z,0.82
2023-04-11T18:03:41.236Z,1.15
2023-04-11T18:06:09.983Z,1.38
2023-04-11T18:08:50.328Z,1.58
2023-04-11T18:11:20.928Z,1.30
2023-04-11T18:13:50.688Z,1.05
2023-04-11T18:16:19.427Z,0.93
2023-04-11T18:18:48.138Z,1.05
2023-04-11T18:21:17.135Z,1.10
2023-04-11T18:23:45.352Z,1.30
2023-04-11T18:26:13.574Z,1.30
2023-04-11T18:28:41.774Z,1.42
2023-04-11T18:31:11.951Z,1.05
2023-04-11T18:33:59.721Z,1.15
2023-04-11T18:36:28.401Z,1.20
2023-04-11T18:38:56.915Z,1.27
2023-04-11T18:41:26.196Z,1.17
2023-04-11T18:43:54.428Z,1.40
2023-04-11T18:46:24.100Z,1.10
2023-04-11T18:48:52.349Z,1.10
2023-04-11T18:51:21.274Z,0.95
2023-04-11T18:53:49.562Z,0.90
2023-04-11T18:56:17.845Z,0.88
2023-04-11T18:58:48.750Z,1.02
2023-04-11T19:01:19.459Z,0.82
2023-04-11T19:03:49.339Z,0.80
2023-04-11T19:06:17.685Z,0.90
2023-04-11T19:08:46.461Z,1.20
2023-04-11T19:11:14.751Z,1.35
2023-04-11T19:13:43.004Z,1.10
2023-04-11T19:16:11.393Z,1.05
2023-04-11T19:18:39.661Z,0.75
2023-04-11T19:21:09.379Z,0.90
2023-04-11T19:23:37.614Z,0.70
2023-04-11T19:26:06.302Z,1.13
2023-04-11T19:28:34.582Z,1.10
2023-04-11T19:31:02.895Z,1.10
2023-04-11T19:33:31.201Z,0.80
2023-04-11T19:35:59.495Z,1.10
2023-04-11T19:38:29.401Z,1.75
2023-04-11T19:40:57.666Z,1.60
2023-04-11T19:43:26.193Z,1.25
2023-04-11T19:45:54.509Z,1.10
2023-04-11T19:48:23.214Z,1.20
2023-04-11T19:50:53.016Z,1.13
2023-04-11T19:53:21.462Z,1.10
2023-04-11T19:55:54.284Z,1.05
2023-04-11T19:58:23.996Z,1.30
2023-04-11T20:00:53.140Z,1.30
2023-04-11T20:03:21.634Z,1.17
2023-04-11T20:05:50.254Z,1.00
2023-04-11T20:08:18.997Z,1.30
2023-04-11T20:10:47.316Z,0.85
2023-04-11T20:13:18.262Z,1.30
2023-04-11T20:15:46.790Z,1.20
2023-04-11T20:18:16.153Z,1.20
2023-04-11T20:20:45.590Z,1.30
2023-04-11T20:23:15.634Z,1.08
2023-04-11T20:25:44.560Z,0.90
2023-04-11T20:28:13.057Z,1.63
2023-04-11T20:30:42.882Z,1.33
2023-04-11T20:33:11.244Z,1.20
2023-04-11T20:35:39.883Z,1.20
2023-04-11T20:38:08.367Z,0.98
2023-04-11T20:40:37.166Z,1.13
2023-04-11T20:43:05.616Z,1.10
2023-04-11T20:45:34.092Z,1.10
2023-04-11T20:48:06.492Z,1.38
2023-04-11T20:50:34.908Z,1.10
2023-04-11T20:53:03.377Z,1.00
2023-04-11T20:55:33.405Z,0.93
2023-04-11T20:58:01.719Z,1.02
2023-04-11T21:00:30.347Z,1.10
2023-04-11T21:02:58.810Z,1.35
2023-04-11T21:05:28.960Z,1.00
2023-04-11T21:07:58.446Z,1.15
2023-04-11T21:10:26.830Z,1.20
2023-04-11T21:12:55.235Z,1.10
2023-04-11T21:15:23.725Z,1.17
2023-04-11T21:17:52.527Z,1.08
2023-04-11T21:20:22.336Z,1.10
2023-04-11T21:22:54.193Z,1.15
2023-04-11T21:27:51.134Z,1.25
2023-04-11T21:30:19.659Z,1.17
2023-04-11T21:32:48.254Z,0.85
2023-04-11T21:35:16.727Z,0.90
2023-04-11T21:37:46.530Z,1.20
2023-04-11T21:40:18.482Z,1.30
2023-04-11T21:42:46.995Z,0.80
2023-04-11T21:45:15.673Z,1.00
2023-04-11T21:47:44.136Z,1.50
2023-04-11T21:50:13.061Z,0.90
2023-04-11T21:52:41.408Z,0.90
2023-04-11T21:55:11.614Z,0.88
2023-04-11T21:57:41.514Z,0.77
2023-04-11T22:00:12.700Z,1.02
2023-04-11T22:02:41.854Z,1.17
2023-04-11T22:05:11.109Z,1.10
2023-04-11T22:07:39.688Z,1.13
2023-04-11T22:10:22.515Z,0.82
2023-04-11T22:12:54.570Z,1.17
2023-04-11T22:15:24.493Z,1.10
2023-04-11T22:17:56.564Z,1.20
2023-04-11T22:20:25.496Z,1.00
2023-04-11T22:22:53.751Z,1.13
2023-04-11T22:25:22.730Z,1.13
2023-04-11T22:27:54.590Z,1.20
2023-04-11T22:30:24.433Z,1.30
2023-04-11T22:32:54.490Z,1.17
2023-04-11T22:35:23.506Z,1.13
2023-04-11T22:37:53.747Z,1.17
2023-04-11T22:40:23.386Z,1.60
2023-04-11T22:42:54.116Z,0.98
2023-04-11T22:45:24.071Z,1.43
2023-04-11T22:47:57.010Z,1.30
2023-04-11T22:50:25.507Z,1.45
2023-04-11T22:52:54.874Z,1.55
2023-04-11T22:55:24.841Z,1.10
2023-04-11T22:57:54.625Z,1.20
2023-04-11T23:00:24.089Z,1.23
2023-04-11T23:02:52.635Z,0.82
2023-04-11T23:05:21.411Z,0.95
2023-04-11T23:07:49.963Z,0.93
2023-04-11T23:10:19.182Z,1.10
2023-04-11T23:12:49.406Z,1.02
2023-04-11T23:15:20.305Z,0.98
2023-04-11T23:17:49.057Z,1.00
2023-04-11T23:20:17.778Z,1.15
2023-04-11T23:22:46.157Z,0.90
2023-04-11T23:25:15.194Z,1.10
2023-04-11T23:27:44.622Z,0.90
2023-04-11T23:30:15.084Z,1.10
2023-04-11T23:32:44.892Z,0.88
2023-04-11T23:35:13.143Z,0.82
2023-04-11T23:37:41.417Z,0.73
2023-04-11T23:40:14.164Z,0.70
2023-04-11T23:42:43.133Z,1.00
2023-04-11T23:45:14.446Z,0.95
2023-04-11T23:47:44.606Z,1.15
2023-04-11T23:50:13.866Z,1.00
2023-04-11T23:52:43.004Z,0.80
2023-04-11T23:55:12.552Z,1.00
2023-04-11T23:57:41.241Z,1.30
